Ventnor City, NJ

4:33 PM EDT on July 30, 2015 (GMT -0400)
N. Clermont Ave. | | Change Station
CLOSE
Current Station
Personal Weather Station
Location: Margate, NJ
Elevation: 10 ft
Nearby Weather Stations

Elev 10 ft 39.34 °N, 74.50 °W | Updated 3 minutes ago

Partly Cloudy
Partly Cloudy
81.7 °F
Feels Like 89 °F
N
9.0
Wind Variable Wind from SSW
Gusts 13.0 mph

Today
High -- | Low -- °F
--% Chance of Precip.
Yesterday
High -- | Low -- °F
Precip. -- in
5:55 AM 8:12 PM
Waxing Gibbous, 99% visible
Pressure 29.85 in
Visibility 10.0 miles
Clouds Few 6000 ft
Scattered Clouds 8000 ft
Scattered Clouds 10000 ft
Heat Index 89 °F
Dew Point 76 °F
Humidity 84%
Rainfall 0.00 in
Snow Depth Not available.
UV 5 out of 12
Pollen 6.30 out of 12
Air Quality Not available.
Flu Activity Not available.
METAR KACY 301954Z 20013G19KT 10SM FEW060 SCT080 SCT100 31/23 A2985 RMK AO2 SLP107 T03060233

More Conditions Fewer Conditions

Pressure 29.85 in
Visibility 10.0 miles
Clouds Few 6000 ft
Scattered Clouds 8000 ft
Scattered Clouds 10000 ft
Heat Index 89 °F
Dew Point 76 °F
Humidity 84%
Rainfall 0.00 in
Snow Depth Not available.
UV 5 out of 12
Pollen 6.30 out of 12
Air Quality Not available.
Flu Activity Not available.
METAR KACY 301954Z 20013G19KT 10SM FEW060 SCT080 SCT100 31/23 A2985 RMK AO2 SLP107 T03060233

More Conditions Fewer Conditions

Nowcast | as of 4:30 PM EDT on July 30, 2015

Strong thunderstorms will continue to move from west to east across eastern Maryland...central and southern Delaware and southeast New Jersey through the rush hours. Downpours may cause localized flooding...so travel at a reduced speed in any storms. Cloud to ground lightning will occur. Go indoors if you hear thunder. A wind gust up to 35 mph is possible.

×

10-Day Weather Forecast

×

Almanac

Astronomy

Jul. 30, 2015 Rise Set
Actual Time
Civil Twilight
Nautical Twilight
Astronomical Twilight
Moon
Length of Visible Light
Length of Day
Tomorrow will be .
, % of the Moon is Illuminated

Today's Extremes

State Highs State Lows

Community

WunderPhotos

Upload Photos

1,842,498 photos uploaded!

WunderBlogs® & News

Nearby

Air Quality

  Air Quality AQ Index Pollutant
Not available.

Snow Depth

Station Depth Elevation

Earthquake Activity

City Distance Mag. Time & Date
Minimum magnitude displayed is 2.5.

Coastal Water Temperatures

Place Temperature

Stations

Nearby Weather Stations

Station Location Temp. Windchill Dew Point Humidity Wind Precip. Elev Updated Type